This is the latest recevied weather packets stored in our database for station/object DL2AKT-20. If no packets are shown the sender has not sent any weather packets the latest 1 day(s).
| Time | Temp. | Humidity | Pressure | Rain* | Wind** | Luminosity | Snow |
|---|---|---|---|---|---|---|---|
| 1778079051 | 23.33° C | 40% | 1008.4 hPa | - | - | - | - |
| 1778075450 | 23.33° C | 42% | 1008.6 hPa | - | - | - | - |
| 1778074550 | 23.33° C | 41% | 1008.6 hPa | - | - | - | - |
| 1778073650 | 23.33° C | 40% | 1008.6 hPa | - | - | - | - |
| 1778069151 | 23.33° C | 42% | 1008.8 hPa | - | - | - | - |
| 1778068251 | 22.78° C | 42% | 1008.8 hPa | - | - | - | - |
| 1778067351 | 22.78° C | 42% | 1008.7 hPa | - | - | - | - |
| 1778061050 | 20° C | 48% | 1009.1 hPa | - | - | - | - |
| 1778060150 | 19.44° C | 49% | 1009.1 hPa | - | - | - | - |
| 1778059250 | 18.89° C | 50% | 1009 hPa | - | - | - | - |
| 1778058350 | 18.89° C | 50% | 1008.9 hPa | - | - | - | - |
| 1778057450 | 18.89° C | 51% | 1008.8 hPa | - | - | - | - |
| 1778056550 | 18.89° C | 52% | 1008.8 hPa | - | - | - | - |
| 1778055650 | 18.89° C | 52% | 1008.7 hPa | - | - | - | - |
| 1778054750 | 18.33° C | 54% | 1008.6 hPa | - | - | - | - |
| 1778051149 | 17.78° C | 57% | 1008.5 hPa | - | - | - | - |
| 1778048451 | 17.78° C | 55% | 1008.5 hPa | - | - | - | - |
| 1778047551 | 17.22° C | 54% | 1008.5 hPa | - | - | - | - |
| 1778042150 | 16.67° C | 54% | 1008.4 hPa | - | - | - | - |
| 1778041249 | 16.67° C | 55% | 1008.4 hPa | - | - | - | - |
| 1778040349 | 16.67° C | 54% | 1008.3 hPa | - | - | - | - |
| 1778039449 | 16.67° C | 54% | 1008.4 hPa | - | - | - | - |
| 1778038549 | 16.67° C | 54% | 1008.5 hPa | - | - | - | - |
| 1778037649 | 16.67° C | 55% | 1008.5 hPa | - | - | - | - |
| 1778036749 | 16.67° C | 55% | 1008.5 hPa | - | - | - | - |
* Rain since midnight (hover to see other rain measurements)
** Current wind speed in m/s (hover to see current wind gust speed)